Time;durP1;ratioP1;P1;durP2;ratioP2;P2;SDS_P1;SDS_P2;PMS_P1;PMS_P2;Temp;Humidity;BMP_temperature;BMP_pressure;BME280_temperature;BME280_humidity;BME280_pressure;Samples;Min_cycle;Max_cycle;Signal;HPM_P1;HPM_P2
2022/08/24 00:00:21;;;;;;;;;;;22.20;90.40;;;;;;5019710;28;20846;-73
2022/08/24 00:02:49;;;;;;;;;;;22.20;90.50;;;;;;5022792;28;20844;-74
2022/08/24 00:05:19;;;;;;;;;;;22.10;90.60;;;;;;5025152;28;20587;-74
2022/08/24 00:07:48;;;;;;;;;;;22.00;90.70;;;;;;5029525;28;20005;-74
2022/08/24 00:10:16;;;;;;;;;;;22.00;90.90;;;;;;5028117;28;21598;-73
2022/08/24 00:12:45;;;;;;;;;;;22.00;90.90;;;;;;5020812;28;20838;-74
2022/08/24 00:15:14;;;;;;;;;;;22.00;91.60;;;;;;5027422;28;20909;-74
2022/08/24 00:17:43;;;;;;;;;;;22.10;91.10;;;;;;5031962;28;20704;-74
2022/08/24 00:20:12;;;;;;;;;;;22.00;91.70;;;;;;5032023;28;20926;-74
2022/08/24 00:22:40;;;;;;;;;;;22.00;91.20;;;;;;5031018;28;20321;-74
2022/08/24 00:25:09;;;;;;;;;;;22.00;91.60;;;;;;5018713;28;20272;-74
2022/08/24 00:27:36;;;;;;;;;;;22.00;91.40;;;;;;5027812;28;20088;-75
2022/08/24 00:30:07;;;;;;;;;;;21.90;91.30;;;;;;5019841;28;20130;-75
2022/08/24 00:32:36;;;;;;;;;;;21.90;91.40;;;;;;5030912;28;20593;-75
2022/08/24 00:35:05;;;;;;;;;;;21.80;91.70;;;;;;5020362;28;25076;-75
2022/08/24 00:37:33;;;;;;;;;;;21.80;91.90;;;;;;5030101;28;20842;-76
2022/08/24 00:40:00;;;;;;;;;;;21.80;92.00;;;;;;5030630;28;20106;-75
2022/08/24 00:42:28;;;;;;;;;;;21.70;92.10;;;;;;5031089;28;21348;-72
2022/08/24 00:44:57;;;;;;;;;;;21.60;92.20;;;;;;5025641;28;20698;-71
2022/08/24 00:47:30;;;;;;;;;;;21.70;92.50;;;;;;5031968;28;20561;-72
2022/08/24 00:49:59;;;;;;;;;;;21.70;92.40;;;;;;5030253;28;21138;-73
2022/08/24 00:52:28;;;;;;;;;;;21.60;92.60;;;;;;5026564;28;20870;-72
2022/08/24 00:54:59;;;;;;;;;;;21.60;92.60;;;;;;5031684;28;20774;-69
2022/08/24 00:57:28;;;;;;;;;;;21.50;92.70;;;;;;5022661;28;21216;-74
2022/08/24 00:59:58;;;;;;;;;;;21.50;93.30;;;;;;5021416;28;25071;-73
2022/08/24 01:02:34;;;;;;;;;;;21.50;93.00;;;;;;5028045;28;20795;-74
2022/08/24 01:05:05;;;;;;;;;;;21.40;93.20;;;;;;5029646;28;20645;-73
2022/08/24 01:07:34;;;;;;;;;;;21.40;93.20;;;;;;5031017;28;20668;-72
2022/08/24 01:10:04;;;;;;;;;;;21.40;93.40;;;;;;5028723;28;20511;-73
2022/08/24 01:12:34;;;;;;;;;;;21.40;93.40;;;;;;5030931;28;20014;-74
2022/08/24 01:15:04;;;;;;;;;;;21.30;93.60;;;;;;5023998;28;20260;-73
2022/08/24 01:20:19;;;;;;;;;;;21.30;93.80;;;;;;5028071;28;20345;-72
2022/08/24 01:22:52;;;;;;;;;;;21.30;93.90;;;;;;5031395;28;20699;-73
2022/08/24 01:25:22;;;;;;;;;;;21.30;93.90;;;;;;5029593;28;20855;-73
2022/08/24 01:27:50;;;;;;;;;;;21.30;94.10;;;;;;5026947;28;20796;-73
2022/08/24 01:30:18;;;;;;;;;;;21.30;94.20;;;;;;5028929;28;20557;-72
2022/08/24 01:32:58;;;;;;;;;;;21.30;94.30;;;;;;5029269;28;20859;-73
2022/08/24 01:35:26;;;;;;;;;;;21.20;94.40;;;;;;5023446;28;21166;-73
2022/08/24 01:37:54;;;;;;;;;;;21.20;94.50;;;;;;5029924;28;21146;-72
2022/08/24 01:40:26;;;;;;;;;;;21.10;95.00;;;;;;5028963;28;20129;-73
2022/08/24 01:42:55;;;;;;;;;;;21.10;94.90;;;;;;5026530;28;20535;-73
2022/08/24 01:45:22;;;;;;;;;;;21.10;95.00;;;;;;5029940;28;20535;-73
2022/08/24 01:47:50;;;;;;;;;;;21.00;95.20;;;;;;5032909;28;20785;-73
2022/08/24 01:50:18;;;;;;;;;;;21.00;95.40;;;;;;5028915;28;20769;-73
2022/08/24 01:52:45;;;;;;;;;;;21.00;95.60;;;;;;5031217;28;20494;-73
2022/08/24 01:55:33;;;;;;;;;;;21.00;95.70;;;;;;5027563;28;20061;-74
2022/08/24 01:58:01;;;;;;;;;;;21.00;96.10;;;;;;5026812;28;20066;-73
2022/08/24 02:00:29;;;;;;;;;;;20.90;96.10;;;;;;5026660;28;20046;-74
2022/08/24 02:02:57;;;;;;;;;;;20.90;96.40;;;;;;5027896;28;20615;-74
2022/08/24 02:05:25;;;;;;;;;;;20.80;96.70;;;;;;5026128;28;20346;-74
2022/08/24 02:07:53;;;;;;;;;;;20.80;96.90;;;;;;5029597;28;20435;-73
2022/08/24 02:10:21;;;;;;;;;;;20.80;97.00;;;;;;5028104;28;20977;-73
2022/08/24 02:12:56;;;;;;;;;;;20.80;97.20;;;;;;5029261;28;20753;-74
2022/08/24 02:15:26;;;;;;;;;;;20.80;97.40;;;;;;5021683;28;21408;-73
2022/08/24 02:17:54;;;;;;;;;;;20.80;97.60;;;;;;5025594;28;20303;-73
2022/08/24 02:20:22;;;;;;;;;;;20.70;97.90;;;;;;5027513;28;20078;-73
2022/08/24 02:22:51;;;;;;;;;;;20.70;98.10;;;;;;5028617;28;20036;-72
2022/08/24 02:25:19;;;;;;;;;;;20.80;98.20;;;;;;5028445;28;20935;-72
2022/08/24 02:27:47;;;;;;;;;;;20.70;98.40;;;;;;5025475;28;20543;-72
2022/08/24 02:30:17;;;;;;;;;;;20.80;98.80;;;;;;5026846;28;26074;-71
2022/08/24 02:32:45;;;;;;;;;;;20.90;98.70;;;;;;5027113;28;20168;-73
2022/08/24 02:35:13;;;;;;;;;;;20.80;98.90;;;;;;5023939;28;20549;-73
2022/08/24 02:37:41;;;;;;;;;;;20.70;99.00;;;;;;5030685;28;25067;-72
2022/08/24 02:40:11;;;;;;;;;;;20.70;99.40;;;;;;5026373;28;20578;-71
2022/08/24 02:42:39;;;;;;;;;;;20.60;99.70;;;;;;5021029;28;20373;-73
2022/08/24 02:45:07;;;;;;;;;;;20.60;99.90;;;;;;5029304;28;20224;-73
2022/08/24 02:47:37;;;;;;;;;;;20.50;99.90;;;;;;5029152;28;20168;-73
2022/08/24 02:50:09;;;;;;;;;;;20.50;99.90;;;;;;5024062;28;21232;-72
2022/08/24 02:52:38;;;;;;;;;;;20.50;99.90;;;;;;5026948;28;20236;-72
2022/08/24 02:55:06;;;;;;;;;;;20.50;99.90;;;;;;5026115;28;20846;-73
2022/08/24 02:57:34;;;;;;;;;;;20.50;99.90;;;;;;5026375;28;25144;-73
2022/08/24 03:00:07;;;;;;;;;;;20.50;99.90;;;;;;5024898;28;20123;-71
2022/08/24 03:02:39;;;;;;;;;;;20.40;99.90;;;;;;5026729;28;20571;-73
2022/08/24 03:05:07;;;;;;;;;;;20.50;99.90;;;;;;5032851;28;20872;-72
2022/08/24 03:07:35;;;;;;;;;;;20.50;99.90;;;;;;5032697;28;20329;-73
2022/08/24 03:10:04;;;;;;;;;;;20.50;99.90;;;;;;5032181;28;20296;-73
2022/08/24 03:12:33;;;;;;;;;;;20.40;99.90;;;;;;5019735;28;20488;-75
2022/08/24 03:15:01;;;;;;;;;;;20.50;99.90;;;;;;5019887;28;20927;-75
2022/08/24 03:17:30;;;;;;;;;;;20.40;99.90;;;;;;5029950;28;20428;-73
2022/08/24 03:20:00;;;;;;;;;;;20.50;99.90;;;;;;5030540;28;20475;-74
2022/08/24 03:22:28;;;;;;;;;;;20.50;99.90;;;;;;5026642;28;20685;-73
2022/08/24 03:24:56;;;;;;;;;;;20.50;99.90;;;;;;5027548;28;20132;-74
2022/08/24 03:27:24;;;;;;;;;;;20.40;99.90;;;;;;5020276;28;20247;-74
2022/08/24 03:29:52;;;;;;;;;;;20.40;99.90;;;;;;5017248;28;20208;-74
2022/08/24 03:32:21;;;;;;;;;;;20.30;99.90;;;;;;5031059;28;20119;-74
2022/08/24 03:34:49;;;;;;;;;;;20.30;99.90;;;;;;5025384;28;20246;-74
2022/08/24 03:37:18;;;;;;;;;;;20.30;99.90;;;;;;5028487;28;20162;-74
2022/08/24 03:39:48;;;;;;;;;;;20.30;99.90;;;;;;5029110;28;20257;-73
2022/08/24 03:42:16;;;;;;;;;;;20.30;99.90;;;;;;5028846;28;20212;-73
2022/08/24 03:44:44;;;;;;;;;;;20.30;99.90;;;;;;5021048;28;20821;-73
2022/08/24 03:47:12;;;;;;;;;;;20.30;99.90;;;;;;5023341;28;25067;-71
2022/08/24 03:49:40;;;;;;;;;;;20.20;99.90;;;;;;5029356;28;20165;-71
2022/08/24 03:52:08;;;;;;;;;;;20.20;99.90;;;;;;5024971;28;20223;-73
2022/08/24 03:54:37;;;;;;;;;;;20.20;99.90;;;;;;5025966;28;20130;-73
2022/08/24 03:57:05;;;;;;;;;;;20.20;99.90;;;;;;5026162;28;20198;-75
2022/08/24 03:59:32;;;;;;;;;;;20.10;99.90;;;;;;5030422;28;20306;-73
2022/08/24 04:02:06;;;;;;;;;;;20.10;99.90;;;;;;5026553;28;20168;-74
2022/08/24 04:04:36;;;;;;;;;;;20.10;99.90;;;;;;5027882;28;25119;-74
2022/08/24 04:07:05;;;;;;;;;;;20.00;99.90;;;;;;5026591;28;20630;-73
2022/08/24 04:09:32;;;;;;;;;;;20.10;99.90;;;;;;5027675;28;20663;-73
2022/08/24 04:12:01;;;;;;;;;;;20.00;99.90;;;;;;5018913;28;20140;-73
2022/08/24 04:14:29;;;;;;;;;;;20.00;99.90;;;;;;5027093;28;20720;-73
2022/08/24 04:16:57;;;;;;;;;;;20.10;99.90;;;;;;5028605;28;20757;-72
2022/08/24 04:19:25;;;;;;;;;;;20.20;99.90;;;;;;5020429;28;20598;-72
2022/08/24 04:21:55;;;;;;;;;;;20.20;99.90;;;;;;5023369;28;20194;-72
2022/08/24 04:24:23;;;;;;;;;;;20.10;99.90;;;;;;5021343;28;20710;-72
2022/08/24 04:26:50;;;;;;;;;;;20.10;99.90;;;;;;5019500;28;25159;-72
2022/08/24 04:29:20;;;;;;;;;;;20.10;99.90;;;;;;5019756;28;20108;-72
2022/08/24 04:31:48;;;;;;;;;;;20.00;99.90;;;;;;5017890;28;21466;-72
2022/08/24 04:34:17;;;;;;;;;;;19.90;99.90;;;;;;5018065;28;20917;-72
2022/08/24 04:36:45;;;;;;;;;;;19.90;99.90;;;;;;5018987;28;21775;-72
2022/08/24 04:39:14;;;;;;;;;;;19.80;99.90;;;;;;5019181;28;20064;-72
2022/08/24 04:41:41;;;;;;;;;;;19.90;99.90;;;;;;5017949;28;20132;-72
2022/08/24 04:44:11;;;;;;;;;;;19.90;99.90;;;;;;5019399;28;21079;-72
2022/08/24 04:46:40;;;;;;;;;;;19.90;99.90;;;;;;5018905;28;20370;-72
2022/08/24 04:49:08;;;;;;;;;;;19.90;99.90;;;;;;5021681;28;20634;-72
2022/08/24 04:51:36;;;;;;;;;;;19.90;99.90;;;;;;5022417;28;25092;-72
2022/08/24 04:54:04;;;;;;;;;;;19.90;99.90;;;;;;5018397;28;20640;-72
2022/08/24 04:56:32;;;;;;;;;;;19.90;99.90;;;;;;5018727;28;20114;-72
2022/08/24 04:58:59;;;;;;;;;;;19.90;99.90;;;;;;5019895;28;20935;-73
2022/08/24 05:01:29;;;;;;;;;;;20.00;99.90;;;;;;5019914;28;20772;-72
2022/08/24 05:03:58;;;;;;;;;;;20.00;99.90;;;;;;5016506;28;20256;-72
2022/08/24 05:06:28;;;;;;;;;;;20.10;99.90;;;;;;5017612;28;20608;-72
2022/08/24 05:08:56;;;;;;;;;;;20.10;99.90;;;;;;5019601;28;20345;-72
2022/08/24 05:11:25;;;;;;;;;;;20.20;99.90;;;;;;5018033;28;20475;-73
2022/08/24 05:13:53;;;;;;;;;;;20.20;99.90;;;;;;5017094;28;20465;-72
2022/08/24 05:16:22;;;;;;;;;;;20.30;99.90;;;;;;5019540;28;20446;-72
2022/08/24 05:18:50;;;;;;;;;;;20.40;99.90;;;;;;5019714;28;25159;-73
2022/08/24 05:21:20;;;;;;;;;;;20.40;99.90;;;;;;5017546;28;20230;-72
2022/08/24 05:23:48;;;;;;;;;;;20.50;99.90;;;;;;5018337;28;20498;-72
2022/08/24 05:26:17;;;;;;;;;;;20.50;99.90;;;;;;5022532;28;20165;-72
2022/08/24 05:28:45;;;;;;;;;;;20.60;99.90;;;;;;5021855;28;20700;-73
2022/08/24 05:31:14;;;;;;;;;;;20.60;99.90;;;;;;5019610;28;25084;-73
2022/08/24 05:33:42;;;;;;;;;;;20.60;99.90;;;;;;5021110;28;20952;-72
2022/08/24 05:36:15;;;;;;;;;;;20.70;99.90;;;;;;5020086;28;20478;-72
2022/08/24 05:38:44;;;;;;;;;;;20.70;99.90;;;;;;5021215;28;20494;-72
2022/08/24 05:41:12;;;;;;;;;;;20.70;99.90;;;;;;5022506;28;20192;-72
2022/08/24 05:43:40;;;;;;;;;;;20.80;99.90;;;;;;5021561;28;25226;-72
2022/08/24 05:46:08;;;;;;;;;;;20.80;99.90;;;;;;5022301;28;20241;-74
2022/08/24 05:48:37;;;;;;;;;;;20.90;99.90;;;;;;5024222;28;20481;-73
2022/08/24 05:51:05;;;;;;;;;;;21.00;99.90;;;;;;5022124;28;25077;-73
2022/08/24 05:53:33;;;;;;;;;;;21.10;99.90;;;;;;5019879;28;20158;-72
2022/08/24 05:56:03;;;;;;;;;;;21.20;99.90;;;;;;5022222;28;20251;-72
2022/08/24 05:58:31;;;;;;;;;;;21.20;99.90;;;;;;5020826;28;20750;-72
2022/08/24 06:00:59;;;;;;;;;;;21.20;99.90;;;;;;5021685;28;20211;-72
2022/08/24 06:03:27;;;;;;;;;;;21.20;99.90;;;;;;5020705;28;20274;-71
2022/08/24 06:05:55;;;;;;;;;;;21.10;99.90;;;;;;5020004;28;20308;-73
2022/08/24 06:08:23;;;;;;;;;;;21.20;99.90;;;;;;5020563;28;20221;-72
2022/08/24 06:10:51;;;;;;;;;;;21.10;99.90;;;;;;5022229;28;20867;-73
2022/08/24 06:13:20;;;;;;;;;;;21.20;99.90;;;;;;5020821;28;20123;-74
2022/08/24 06:15:48;;;;;;;;;;;21.20;99.90;;;;;;5025769;28;20192;-72
2022/08/24 06:18:36;;;;;;;;;;;21.20;99.90;;;;;;5023999;28;20167;-74
2022/08/24 06:21:05;;;;;;;;;;;21.30;99.90;;;;;;5023659;28;20129;-73
2022/08/24 06:23:33;;;;;;;;;;;21.40;99.90;;;;;;5021731;28;20166;-73
2022/08/24 06:28:52;;;;;;;;;;;21.60;99.90;;;;;;5025301;28;25091;-69
2022/08/24 06:31:20;;;;;;;;;;;21.70;99.90;;;;;;5023801;28;21020;-70
2022/08/24 06:33:51;;;;;;;;;;;21.80;99.90;;;;;;5020174;28;20993;-69
2022/08/24 06:36:19;;;;;;;;;;;21.90;99.90;;;;;;5023467;28;20461;-70
2022/08/24 06:38:49;;;;;;;;;;;22.00;99.90;;;;;;5022859;28;20775;-69
2022/08/24 06:41:19;;;;;;;;;;;22.00;99.90;;;;;;5022422;28;20300;-70
2022/08/24 06:43:47;;;;;;;;;;;22.10;99.90;;;;;;5020724;28;20240;-70
2022/08/24 06:46:16;;;;;;;;;;;22.30;99.90;;;;;;5021567;28;20232;-70
2022/08/24 06:48:51;;;;;;;;;;;22.30;99.90;;;;;;5024099;28;21055;-70
2022/08/24 06:51:21;;;;;;;;;;;22.30;99.90;;;;;;5023538;28;20238;-70
2022/08/24 06:53:50;;;;;;;;;;;22.30;99.90;;;;;;5035357;28;25147;-69
2022/08/24 06:56:18;;;;;;;;;;;22.30;99.90;;;;;;5022247;28;20256;-68
2022/08/24 06:58:46;;;;;;;;;;;22.40;99.90;;;;;;5029780;28;20632;-69
2022/08/24 07:01:16;;;;;;;;;;;22.50;99.90;;;;;;5023055;28;20156;-68
2022/08/24 07:03:45;;;;;;;;;;;22.50;99.90;;;;;;5019852;28;20229;-70
2022/08/24 07:06:14;;;;;;;;;;;22.60;99.90;;;;;;5021398;28;20705;-70
2022/08/24 07:08:42;;;;;;;;;;;22.60;99.90;;;;;;5021480;28;25058;-69
2022/08/24 07:11:11;;;;;;;;;;;22.60;99.90;;;;;;5038666;28;20153;-71
2022/08/24 07:13:39;;;;;;;;;;;22.70;99.90;;;;;;5021170;28;20239;-70
2022/08/24 07:16:08;;;;;;;;;;;22.70;99.90;;;;;;5022384;28;20810;-71
2022/08/24 07:18:36;;;;;;;;;;;22.80;99.90;;;;;;5021576;28;25071;-70
2022/08/24 07:21:09;;;;;;;;;;;22.90;99.90;;;;;;5023923;28;20146;-69
2022/08/24 07:23:37;;;;;;;;;;;23.00;99.90;;;;;;5020090;28;20644;-70
2022/08/24 07:26:10;;;;;;;;;;;23.10;99.90;;;;;;5022635;28;20098;-70
2022/08/24 07:28:48;;;;;;;;;;;23.30;99.90;;;;;;5021853;28;20266;-70
2022/08/24 07:31:16;;;;;;;;;;;23.30;99.90;;;;;;5023168;28;20141;-70
2022/08/24 07:33:44;;;;;;;;;;;23.40;99.90;;;;;;5019331;28;20702;-70
2022/08/24 07:36:16;;;;;;;;;;;23.50;99.90;;;;;;5021731;28;20253;-71
2022/08/24 07:38:51;;;;;;;;;;;23.60;99.90;;;;;;5020864;28;20231;-71
2022/08/24 07:41:19;;;;;;;;;;;23.60;99.90;;;;;;5022916;28;20627;-70
2022/08/24 07:44:08;;;;;;;;;;;23.70;99.90;;;;;;5018899;28;21195;-70
2022/08/24 07:46:36;;;;;;;;;;;23.80;99.90;;;;;;5023175;28;20102;-71
2022/08/24 07:49:06;;;;;;;;;;;23.80;99.90;;;;;;5022833;28;20210;-71
2022/08/24 07:51:47;;;;;;;;;;;23.80;99.90;;;;;;5022378;28;20769;-71
2022/08/24 07:54:16;;;;;;;;;;;23.80;99.90;;;;;;5017777;28;20271;-71
2022/08/24 07:56:44;;;;;;;;;;;23.70;99.90;;;;;;5020768;28;20131;-71
2022/08/24 07:59:12;;;;;;;;;;;23.70;99.90;;;;;;5022141;28;20208;-71
2022/08/24 08:01:41;;;;;;;;;;;23.90;99.90;;;;;;5021343;28;20206;-71
2022/08/24 08:04:09;;;;;;;;;;;23.90;99.90;;;;;;5018657;28;20205;-70
2022/08/24 08:06:37;;;;;;;;;;;24.00;99.90;;;;;;5038176;28;20932;-69
2022/08/24 08:09:06;;;;;;;;;;;24.20;99.90;;;;;;5022374;28;20611;-70
2022/08/24 08:11:35;;;;;;;;;;;24.30;99.90;;;;;;5021218;28;20211;-69
2022/08/24 08:14:03;;;;;;;;;;;24.30;99.90;;;;;;5019593;28;20271;-70
2022/08/24 08:16:31;;;;;;;;;;;24.30;99.90;;;;;;5022943;28;20216;-70
2022/08/24 08:18:59;;;;;;;;;;;24.50;99.50;;;;;;5021238;28;20128;-69
2022/08/24 08:24:28;;;;;;;;;;;24.80;99.40;;;;;;5018050;28;20301;-69
2022/08/24 08:26:58;;;;;;;;;;;25.00;98.90;;;;;;5021640;28;20289;-70
2022/08/24 08:29:26;;;;;;;;;;;25.20;98.60;;;;;;5020344;28;20203;-71
2022/08/24 08:31:54;;;;;;;;;;;25.40;98.70;;;;;;5022810;28;20584;-70
2022/08/24 08:34:23;;;;;;;;;;;25.60;98.40;;;;;;5017539;28;20603;-69
2022/08/24 08:36:51;;;;;;;;;;;25.90;97.90;;;;;;5022590;28;21146;-70
2022/08/24 08:39:21;;;;;;;;;;;26.20;97.40;;;;;;5020671;28;20547;-71
2022/08/24 08:42:20;;;;;;;;;;;26.50;97.00;;;;;;5022411;28;20236;-70
2022/08/24 08:44:52;;;;;;;;;;;26.60;96.50;;;;;;5020276;28;20636;-70
2022/08/24 08:47:32;;;;;;;;;;;26.60;95.80;;;;;;5022280;28;20207;-73
2022/08/24 08:50:06;;;;;;;;;;;26.60;96.00;;;;;;5021964;28;20195;-72
2022/08/24 08:52:52;;;;;;;;;;;26.90;95.60;;;;;;5036114;28;20653;-70
2022/08/24 08:55:23;;;;;;;;;;;27.00;94.80;;;;;;4990662;28;20683;-70
2022/08/24 08:58:06;;;;;;;;;;;26.80;95.20;;;;;;5021164;28;20199;-71
2022/08/24 09:00:44;;;;;;;;;;;26.90;95.50;;;;;;5025468;28;20216;-70
2022/08/24 09:03:22;;;;;;;;;;;27.00;94.90;;;;;;5022128;28;20203;-70
2022/08/24 09:06:09;;;;;;;;;;;27.40;94.50;;;;;;5024044;28;22143;-70
2022/08/24 09:08:49;;;;;;;;;;;27.70;94.10;;;;;;5026136;28;20476;-70
2022/08/24 09:11:23;;;;;;;;;;;27.90;93.80;;;;;;5025374;28;20232;-70
2022/08/24 09:14:03;;;;;;;;;;;28.10;93.70;;;;;;5023263;28;20209;-70
2022/08/24 09:16:39;;;;;;;;;;;28.30;93.10;;;;;;5026307;28;20298;-70
2022/08/24 09:19:14;;;;;;;;;;;28.50;92.80;;;;;;5024399;28;20699;-70
2022/08/24 09:21:48;;;;;;;;;;;28.70;92.80;;;;;;5024658;28;20213;-71
2022/08/24 09:24:29;;;;;;;;;;;29.10;92.00;;;;;;5020309;28;20214;-70
2022/08/24 09:27:05;;;;;;;;;;;29.20;92.00;;;;;;5041312;28;20305;-70
2022/08/24 09:29:41;;;;;;;;;;;29.40;91.70;;;;;;5025067;28;20650;-70
2022/08/24 09:32:23;;;;;;;;;;;29.50;91.40;;;;;;5024648;28;20209;-69
2022/08/24 09:34:55;;;;;;;;;;;29.60;90.60;;;;;;5023690;28;20213;-70
2022/08/24 09:37:30;;;;;;;;;;;29.90;90.90;;;;;;5023875;28;20207;-69
2022/08/24 09:40:00;;;;;;;;;;;30.10;91.10;;;;;;5023970;28;20209;-70
2022/08/24 09:42:44;;;;;;;;;;;30.20;90.40;;;;;;5024431;28;20214;-70
2022/08/24 09:45:41;;;;;;;;;;;30.40;89.30;;;;;;5025233;28;20552;-69
2022/08/24 09:48:16;;;;;;;;;;;30.80;90.30;;;;;;5025360;28;20541;-68
2022/08/24 09:51:11;;;;;;;;;;;30.80;90.00;;;;;;5024974;28;20209;-70
2022/08/24 09:53:47;;;;;;;;;;;30.90;90.00;;;;;;4974936;28;20311;-70
2022/08/24 09:56:24;;;;;;;;;;;30.80;88.60;;;;;;5038856;28;20356;-69
2022/08/24 09:59:01;;;;;;;;;;;30.80;89.40;;;;;;5032211;28;20214;-69
2022/08/24 10:01:33;;;;;;;;;;;31.00;88.70;;;;;;5025257;28;20285;-69
2022/08/24 10:04:10;;;;;;;;;;;30.90;88.10;;;;;;5022199;28;20687;-70
2022/08/24 10:06:45;;;;;;;;;;;30.50;88.90;;;;;;5040147;28;20210;-70
2022/08/24 10:09:26;;;;;;;;;;;30.50;89.40;;;;;;5023199;28;20689;-70
2022/08/24 10:11:58;;;;;;;;;;;30.60;88.90;;;;;;5024534;28;20313;-69
2022/08/24 10:14:35;;;;;;;;;;;30.50;87.60;;;;;;5021355;28;20217;-70
2022/08/24 10:17:10;;;;;;;;;;;30.50;88.10;;;;;;5025335;28;20199;-70
2022/08/24 10:19:45;;;;;;;;;;;30.80;89.70;;;;;;5021706;28;20608;-70
2022/08/24 10:22:17;;;;;;;;;;;31.00;88.10;;;;;;5023831;28;20207;-70
2022/08/24 10:25:02;;;;;;;;;;;31.20;87.70;;;;;;5021954;28;20221;-69
2022/08/24 10:27:39;;;;;;;;;;;31.40;87.40;;;;;;5024818;28;20205;-70
2022/08/24 10:30:21;;;;;;;;;;;31.70;86.30;;;;;;5039208;28;20221;-69
2022/08/24 10:33:05;;;;;;;;;;;31.70;86.90;;;;;;5020049;28;20617;-70
2022/08/24 10:35:35;;;;;;;;;;;31.80;85.30;;;;;;5022682;28;20260;-70
2022/08/24 10:41:28;;;;;;;;;;;32.20;85.10;;;;;;4995245;28;20219;-71
2022/08/24 10:44:10;;;;;;;;;;;32.40;84.10;;;;;;5021215;28;20219;-69
2022/08/24 10:46:48;;;;;;;;;;;32.80;83.90;;;;;;5022583;28;20291;-70
2022/08/24 10:49:35;;;;;;;;;;;32.90;83.60;;;;;;5038420;28;20218;-70
2022/08/24 10:52:12;;;;;;;;;;;33.00;82.20;;;;;;5039489;28;20581;-70
2022/08/24 10:54:41;;;;;;;;;;;33.30;81.20;;;;;;5018830;28;20176;-70
2022/08/24 10:57:17;;;;;;;;;;;33.70;81.20;;;;;;5039646;28;20119;-70
2022/08/24 10:59:50;;;;;;;;;;;33.50;80.40;;;;;;5022977;28;20208;-71
2022/08/24 11:02:29;;;;;;;;;;;33.80;79.90;;;;;;5023415;28;20182;-70
2022/08/24 11:04:58;;;;;;;;;;;33.90;80.10;;;;;;5022296;28;20232;-69
2022/08/24 11:07:28;;;;;;;;;;;33.90;80.10;;;;;;5023995;28;20229;-70
2022/08/24 11:09:58;;;;;;;;;;;34.10;78.30;;;;;;5023700;28;20285;-69
2022/08/24 11:12:30;;;;;;;;;;;34.40;77.90;;;;;;5022015;28;20225;-70
2022/08/24 11:14:59;;;;;;;;;;;34.30;76.20;;;;;;5064624;22;20305;-67
2022/08/24 11:17:28;;;;;;;;;;;34.30;76.20;;;;;;5062343;28;20254;-68
2022/08/24 11:19:58;;;;;;;;;;;34.40;75.60;;;;;;5063922;28;20570;-67
2022/08/24 11:22:32;;;;;;;;;;;34.70;74.80;;;;;;5031690;28;20201;-68
2022/08/24 11:25:01;;;;;;;;;;;34.80;73.00;;;;;;5030429;28;20591;-67
2022/08/24 11:27:31;;;;;;;;;;;34.60;73.50;;;;;;5032010;28;20200;-68
2022/08/24 11:30:06;;;;;;;;;;;34.90;73.90;;;;;;5030258;28;20192;-67
2022/08/24 11:32:38;;;;;;;;;;;35.00;71.10;;;;;;5032368;28;20181;-68
2022/08/24 11:35:09;;;;;;;;;;;34.60;70.80;;;;;;5031616;28;20784;-68
2022/08/24 11:37:39;;;;;;;;;;;34.40;70.00;;;;;;5031737;28;20165;-68
2022/08/24 11:40:07;;;;;;;;;;;34.30;71.10;;;;;;5031290;28;20210;-67
2022/08/24 11:42:40;;;;;;;;;;;34.30;70.40;;;;;;5031840;28;20223;-68
2022/08/24 11:45:12;;;;;;;;;;;34.40;69.80;;;;;;5031499;28;20553;-67
2022/08/24 11:47:46;;;;;;;;;;;34.20;68.30;;;;;;5031448;28;20202;-67
2022/08/24 11:50:19;;;;;;;;;;;34.00;68.70;;;;;;5031437;28;20191;-68
2022/08/24 11:52:52;;;;;;;;;;;34.30;68.10;;;;;;5031592;28;20186;-68
2022/08/24 11:55:24;;;;;;;;;;;34.70;66.90;;;;;;5011653;28;20204;-68
2022/08/24 11:57:55;;;;;;;;;;;35.10;67.10;;;;;;5011919;28;20225;-68
2022/08/24 12:00:25;;;;;;;;;;;35.20;65.30;;;;;;5011450;28;20217;-68
2022/08/24 12:02:57;;;;;;;;;;;35.20;66.10;;;;;;5011876;28;20174;-68
2022/08/24 12:05:29;;;;;;;;;;;35.30;66.10;;;;;;5011623;28;20289;-67
2022/08/24 12:08:05;;;;;;;;;;;35.30;65.20;;;;;;5011579;28;20248;-68
2022/08/24 12:10:40;;;;;;;;;;;35.20;65.20;;;;;;5011502;28;20212;-68
2022/08/24 12:13:10;;;;;;;;;;;35.10;64.60;;;;;;5045140;28;20182;-67
2022/08/24 12:15:42;;;;;;;;;;;35.40;65.60;;;;;;4966930;28;1820822;-68
2022/08/24 12:18:20;;;;;;;;;;;35.50;64.40;;;;;;5031914;28;20232;-68
2022/08/24 12:20:49;;;;;;;;;;;35.60;64.30;;;;;;5031817;28;20186;-68
2022/08/24 12:23:20;;;;;;;;;;;36.00;64.80;;;;;;5031837;28;20663;-68
2022/08/24 12:26:01;;;;;;;;;;;36.20;63.80;;;;;;5030517;28;20207;-68
2022/08/24 12:28:32;;;;;;;;;;;36.00;63.20;;;;;;5032155;28;20209;-68
2022/08/24 12:31:03;;;;;;;;;;;35.80;63.50;;;;;;5031706;28;20216;-68
2022/08/24 12:33:32;;;;;;;;;;;35.60;63.20;;;;;;5033018;28;20198;-68
2022/08/24 12:36:08;;;;;;;;;;;35.60;63.30;;;;;;5035962;28;20722;-68
2022/08/24 12:38:39;;;;;;;;;;;35.90;62.70;;;;;;5035913;28;20646;-69
2022/08/24 12:41:12;;;;;;;;;;;36.00;63.00;;;;;;5035893;28;20179;-67
2022/08/24 12:43:49;;;;;;;;;;;36.00;62.80;;;;;;5035856;28;21225;-67
2022/08/24 12:46:21;;;;;;;;;;;35.90;63.50;;;;;;5035596;28;20204;-68
2022/08/24 12:48:52;;;;;;;;;;;35.90;63.50;;;;;;5035705;28;20253;-68
2022/08/24 12:51:25;;;;;;;;;;;36.20;63.90;;;;;;5035845;28;20675;-68
2022/08/24 12:54:01;;;;;;;;;;;36.50;63.10;;;;;;5035752;28;20205;-68
2022/08/24 12:56:35;;;;;;;;;;;36.50;63.00;;;;;;5035341;28;20554;-68
2022/08/24 12:59:07;;;;;;;;;;;36.60;62.10;;;;;;5035672;28;20282;-68
2022/08/24 13:01:37;;;;;;;;;;;36.70;62.50;;;;;;5035365;28;20512;-68
2022/08/24 13:04:07;;;;;;;;;;;36.20;62.10;;;;;;5035441;28;20212;-67
2022/08/24 13:06:41;;;;;;;;;;;35.90;62.50;;;;;;5035071;28;20219;-68
2022/08/24 13:09:13;;;;;;;;;;;35.80;62.80;;;;;;5035058;28;20199;-68
2022/08/24 13:11:41;;;;;;;;;;;36.00;62.60;;;;;;5035176;28;20531;-68
2022/08/24 13:14:18;;;;;;;;;;;35.70;62.10;;;;;;5035243;28;20213;-68
2022/08/24 13:16:47;;;;;;;;;;;35.90;61.90;;;;;;5034911;28;20299;-68
2022/08/24 13:19:17;;;;;;;;;;;36.40;61.70;;;;;;5035205;28;20770;-68
2022/08/24 13:21:52;;;;;;;;;;;36.60;62.50;;;;;;5034872;28;20198;-68
2022/08/24 13:24:49;;;;;;;;;;;36.80;62.20;;;;;;5034648;28;20561;-68
2022/08/24 13:27:47;;;;;;;;;;;36.70;61.30;;;;;;5030551;28;20542;-68
2022/08/24 13:30:30;;;;;;;;;;;36.80;61.60;;;;;;5034042;28;20675;-68
2022/08/24 13:33:02;;;;;;;;;;;36.60;61.40;;;;;;5034794;28;20208;-68
2022/08/24 13:35:33;;;;;;;;;;;36.20;61.40;;;;;;5034778;28;20215;-68
2022/08/24 13:38:20;;;;;;;;;;;36.20;61.90;;;;;;5034863;28;20675;-68
2022/08/24 13:40:50;;;;;;;;;;;36.00;61.90;;;;;;5034642;28;20205;-69
2022/08/24 13:43:19;;;;;;;;;;;35.90;61.80;;;;;;5034862;28;20199;-68
2022/08/24 13:45:51;;;;;;;;;;;36.30;61.80;;;;;;5034496;28;20182;-68
2022/08/24 13:48:31;;;;;;;;;;;37.10;61.00;;;;;;5034703;28;20202;-67
2022/08/24 13:51:15;;;;;;;;;;;37.90;60.90;;;;;;5034829;28;20196;-68
2022/08/24 13:54:05;;;;;;;;;;;38.60;60.30;;;;;;5034753;28;21160;-68
2022/08/24 13:56:54;;;;;;;;;;;38.60;59.90;;;;;;5034480;28;20211;-68
2022/08/24 13:59:38;;;;;;;;;;;38.70;59.60;;;;;;5034772;28;20314;-67
2022/08/24 14:02:12;;;;;;;;;;;38.70;60.00;;;;;;5034647;28;20248;-67
2022/08/24 14:04:44;;;;;;;;;;;38.70;59.40;;;;;;5034312;28;20197;-68
2022/08/24 14:07:14;;;;;;;;;;;38.00;59.70;;;;;;5033874;28;20647;-68
2022/08/24 14:09:46;;;;;;;;;;;38.10;60.50;;;;;;5033975;28;20200;-68
2022/08/24 14:12:18;;;;;;;;;;;38.40;59.30;;;;;;5034310;28;20595;-67
2022/08/24 14:15:02;;;;;;;;;;;38.70;59.20;;;;;;5033992;28;20238;-68
2022/08/24 14:17:51;;;;;;;;;;;39.00;59.00;;;;;;5034148;28;20191;-68
2022/08/24 14:20:41;;;;;;;;;;;39.10;58.40;;;;;;5034194;28;20174;-68
2022/08/24 14:23:20;;;;;;;;;;;38.90;59.00;;;;;;5034051;28;20636;-68
2022/08/24 14:25:50;;;;;;;;;;;38.40;58.60;;;;;;5033498;28;20215;-68
2022/08/24 14:28:33;;;;;;;;;;;38.20;58.90;;;;;;5033980;28;20731;-68
2022/08/24 14:31:16;;;;;;;;;;;38.30;59.10;;;;;;5033833;28;20583;-68
2022/08/24 14:33:50;;;;;;;;;;;38.30;58.70;;;;;;5033892;28;20532;-68
2022/08/24 14:36:20;;;;;;;;;;;38.10;59.20;;;;;;5034197;28;20191;-68
2022/08/24 14:39:06;;;;;;;;;;;37.60;59.00;;;;;;5033672;28;20292;-68
2022/08/24 14:41:44;;;;;;;;;;;37.60;59.10;;;;;;5033573;28;20550;-69
2022/08/24 14:44:27;;;;;;;;;;;37.50;58.80;;;;;;5034080;28;20257;-68
2022/08/24 14:47:00;;;;;;;;;;;37.90;58.80;;;;;;5020724;28;20680;-68
2022/08/24 14:49:34;;;;;;;;;;;38.10;59.00;;;;;;5033488;28;20242;-68
2022/08/24 14:52:07;;;;;;;;;;;37.70;58.50;;;;;;5033591;28;20195;-69
2022/08/24 14:54:39;;;;;;;;;;;37.50;59.40;;;;;;5033150;28;20213;-67